KSMN

Lemhi County Airport

Salmon, Idaho, USA
METAR KSMN 201156Z AUTO 00000KT 10SM OVC065 M04/M07 A3001 RMK AO2 SLP196 70007 T10441067 11033 21050 51005 FZRANO
Observed Flight Rules
Jan-20 @ 11:56 UTC (an hour ago) Visual Flight Rules
Wind Visibility Clouds
Calm 10 miles
  • Overcast at 6,500' AGL
Temperatures Readings
Current -4°C / 25°F
Dewpoint -7°C / 19°F
Humidity 80%
Altimeter 30.01" Hg
Pressure 1019.6 hPa
Elevation 1233
METAR KSMN 201156Z AUTO 00000KT 10SM OVC065 M04/M07 A3001 RMK AO2 SLP196 70007 T10441067 11033 21050 51005 FZRANO
Observed Flight Rules
Jan-20 @ 11:56 UTC
(an hour ago)
VFR
Wind Visibility
Calm 10 miles
Clouds
  • Overcast at 6,500' AGL
Temperature Dewpoint
-4°C / 25°F -7°C / 19°F
Humidity Altimeter Pressure
80% 30.01" Hg 1019.6 hPa